Terminal Aerodrome Forecast
Issued by NWS

Home | Current Version | Previous Version | Text Only | Print | Product List | Glossary On
Versions: 1 2 3 4 5 6 7 8 9 10 11 12 13 14 15 16
413
FTUS43 KDLH 240214 AAA
TAFBRD
TAF AMD
KBRD 240214Z 2402/2424 08003KT 2SM BR OVC005
     FM240900 36006KT P6SM OVC008
     FM241500 36010KT P6SM BKN015
     FM241900 01008KT P6SM SKC=

USA.gov is the U.S. government's official web portal to all federal, state and local government web resources and services.